Time;durP1;ratioP1;P1;durP2;ratioP2;P2;SDS_P1;SDS_P2;PMS_P1;PMS_P2;Temp;Humidity;BMP_temperature;BMP_pressure;BME280_temperature;BME280_humidity;BME280_pressure;Samples;Min_cycle;Max_cycle;Signal;HPM_P1;HPM_P2
2023/06/28 00:00:07;;;;;;;3.13;1.15;;;22.10;59.70;;;;;;5002958;28;20160;-66
2023/06/28 00:02:35;;;;;;;2.22;1.20;;;22.10;59.70;;;;;;5005586;28;20029;-66
2023/06/28 00:05:07;;;;;;;1.70;1.20;;;22.10;59.70;;;;;;5006231;28;20021;-64
2023/06/28 00:07:33;;;;;;;1.48;1.20;;;22.10;59.70;;;;;;5005864;28;20029;-66
2023/06/28 00:09:58;;;;;;;1.30;0.98;;;22.10;59.70;;;;;;5006186;28;20030;-66
2023/06/28 00:12:24;;;;;;;2.15;0.80;;;22.10;59.80;;;;;;5005094;28;20038;-66
2023/06/28 00:14:50;;;;;;;1.23;1.13;;;22.10;59.70;;;;;;5006776;28;20033;-65
2023/06/28 00:17:15;;;;;;;1.52;1.02;;;22.10;59.80;;;;;;4999024;28;20072;-66
2023/06/28 00:19:47;;;;;;;1.60;1.00;;;22.10;59.80;;;;;;5003654;28;20019;-65
2023/06/28 00:22:14;;;;;;;1.35;0.95;;;22.10;59.70;;;;;;5005481;28;20572;-65
2023/06/28 00:24:40;;;;;;;1.20;0.68;;;22.10;59.80;;;;;;5001909;28;20107;-64
2023/06/28 00:27:05;;;;;;;1.45;1.05;;;22.10;59.80;;;;;;5002880;28;20166;-66
2023/06/28 00:29:31;;;;;;;1.40;0.80;;;22.00;59.70;;;;;;5003041;28;20038;-62
2023/06/28 00:31:56;;;;;;;0.98;0.82;;;22.10;59.80;;;;;;5006550;28;20026;-66
2023/06/28 00:34:21;;;;;;;0.85;0.75;;;22.00;59.70;;;;;;5006575;28;20038;-64
2023/06/28 00:36:47;;;;;;;1.63;0.80;;;22.00;59.70;;;;;;5005245;28;20121;-66
2023/06/28 00:39:12;;;;;;;1.95;0.80;;;22.00;59.70;;;;;;5005895;28;20311;-64
2023/06/28 00:41:38;;;;;;;0.85;0.60;;;22.00;59.70;;;;;;5003050;28;20088;-66
2023/06/28 00:44:05;;;;;;;0.80;0.80;;;22.00;59.60;;;;;;5006535;28;20522;-66
2023/06/28 00:46:30;;;;;;;1.10;1.00;;;22.00;59.70;;;;;;5006724;28;20045;-66
2023/06/28 00:48:56;;;;;;;1.83;0.98;;;22.00;59.60;;;;;;5004355;28;20243;-65
2023/06/28 00:51:22;;;;;;;1.63;0.70;;;22.00;59.60;;;;;;5002361;28;20034;-66
2023/06/28 00:53:48;;;;;;;1.23;0.80;;;22.00;59.60;;;;;;5004640;28;20066;-66
2023/06/28 00:56:14;;;;;;;1.65;1.00;;;22.00;59.60;;;;;;5002970;28;20315;-66
2023/06/28 00:58:40;;;;;;;1.27;0.82;;;22.00;59.60;;;;;;5001785;28;20114;-65
2023/06/28 01:01:06;;;;;;;1.40;0.98;;;22.00;59.60;;;;;;5006488;28;20576;-63
2023/06/28 01:03:31;;;;;;;1.67;0.80;;;22.00;59.60;;;;;;5006748;28;20030;-65
2023/06/28 01:05:58;;;;;;;1.30;0.70;;;22.00;59.50;;;;;;5005758;28;20027;-65
2023/06/28 01:08:25;;;;;;;0.93;0.80;;;22.00;59.50;;;;;;5005428;28;20416;-66
2023/06/28 01:10:51;;;;;;;1.60;0.90;;;22.00;59.50;;;;;;5003044;28;20257;-67
2023/06/28 01:13:18;;;;;;;1.10;0.77;;;22.00;59.40;;;;;;5001996;28;20400;-66
2023/06/28 01:15:44;;;;;;;2.75;0.90;;;22.00;59.50;;;;;;5002136;28;20473;-66
2023/06/28 01:18:09;;;;;;;0.65;0.60;;;22.00;59.50;;;;;;5003315;28;20058;-65
2023/06/28 01:20:35;;;;;;;1.13;0.80;;;22.00;59.40;;;;;;5000448;28;20069;-65
2023/06/28 01:23:02;;;;;;;1.75;0.90;;;22.00;59.40;;;;;;5003163;28;20029;-64
2023/06/28 01:25:27;;;;;;;1.27;0.88;;;22.00;59.50;;;;;;5003449;28;20044;-65
2023/06/28 01:27:53;;;;;;;0.80;0.80;;;22.00;59.50;;;;;;5003299;28;20030;-66
2023/06/28 01:30:23;;;;;;;1.30;0.70;;;22.00;59.50;;;;;;5001949;28;20401;-66
2023/06/28 01:32:49;;;;;;;1.63;0.90;;;22.00;59.40;;;;;;5005488;28;20034;-64
2023/06/28 01:35:15;;;;;;;2.25;1.15;;;22.00;59.40;;;;;;5001488;28;20046;-59
2023/06/28 01:37:41;;;;;;;2.17;0.70;;;22.00;59.40;;;;;;5002447;28;20432;-65
2023/06/28 01:40:09;;;;;;;2.03;0.90;;;22.00;59.50;;;;;;5003267;28;20446;-64
2023/06/28 01:42:36;;;;;;;1.10;0.80;;;22.00;59.40;;;;;;5003801;28;20034;-66
2023/06/28 01:45:02;;;;;;;1.23;0.82;;;21.90;59.40;;;;;;5003141;28;20636;-66
2023/06/28 01:47:27;;;;;;;1.88;0.90;;;21.90;59.70;;;;;;4998738;28;20045;-64
2023/06/28 01:49:54;;;;;;;2.05;1.00;;;21.90;59.40;;;;;;5004207;28;20473;-66
2023/06/28 01:52:19;;;;;;;2.25;1.10;;;21.90;59.40;;;;;;5002870;28;20408;-65
2023/06/28 01:54:45;;;;;;;0.80;0.80;;;21.90;59.50;;;;;;5001823;28;20026;-66
2023/06/28 01:57:11;;;;;;;1.38;1.00;;;21.90;59.50;;;;;;5004647;28;20026;-67
2023/06/28 01:59:37;;;;;;;3.13;1.05;;;22.00;59.50;;;;;;5005740;28;20447;-64
2023/06/28 02:02:03;;;;;;;1.75;1.10;;;21.90;59.50;;;;;;5005500;28;20015;-63
2023/06/28 02:04:28;;;;;;;1.40;0.95;;;21.90;59.50;;;;;;5002986;28;20030;-66
2023/06/28 02:06:54;;;;;;;2.65;0.98;;;21.90;59.50;;;;;;5004241;28;20026;-65
2023/06/28 02:09:19;;;;;;;1.17;0.80;;;21.90;59.50;;;;;;5003816;28;20034;-65
2023/06/28 02:11:45;;;;;;;2.08;1.02;;;21.90;59.50;;;;;;5003022;28;20037;-65
2023/06/28 02:14:10;;;;;;;1.50;1.17;;;21.90;59.50;;;;;;5001553;28;20107;-65
2023/06/28 02:16:37;;;;;;;1.00;0.80;;;21.90;59.50;;;;;;5000844;28;20512;-65
2023/06/28 02:19:02;;;;;;;2.10;1.20;;;21.90;59.50;;;;;;5000930;28;20026;-61
2023/06/28 02:21:28;;;;;;;1.23;1.00;;;21.90;59.50;;;;;;5001899;28;20041;-66
2023/06/28 02:23:53;;;;;;;1.63;0.80;;;21.90;59.50;;;;;;5003606;28;20184;-66
2023/06/28 02:26:19;;;;;;;1.92;0.90;;;21.90;59.50;;;;;;5004742;28;20038;-65
2023/06/28 02:28:44;;;;;;;0.98;0.80;;;21.90;60.10;;;;;;5003101;28;20037;-66
2023/06/28 02:31:10;;;;;;;1.75;1.10;;;21.90;59.50;;;;;;5003822;28;20117;-65
2023/06/28 02:33:35;;;;;;;1.92;1.08;;;21.90;59.50;;;;;;4999639;28;20089;-66
2023/06/28 02:36:01;;;;;;;1.73;1.00;;;21.90;59.50;;;;;;5002693;28;20515;-64
2023/06/28 02:38:26;;;;;;;1.05;0.80;;;21.90;59.50;;;;;;5002129;28;20026;-66
2023/06/28 02:40:52;;;;;;;1.45;0.90;;;21.90;59.50;;;;;;5000148;28;20027;-65
2023/06/28 02:43:17;;;;;;;1.20;0.80;;;21.90;59.50;;;;;;5004281;28;20452;-66
2023/06/28 02:45:43;;;;;;;1.10;0.90;;;21.90;59.50;;;;;;5003392;28;20129;-65
2023/06/28 02:48:08;;;;;;;1.00;0.80;;;21.90;59.50;;;;;;5000792;28;20034;-66
2023/06/28 02:50:34;;;;;;;0.88;0.70;;;21.80;59.40;;;;;;5001992;28;20121;-65
2023/06/28 02:52:59;;;;;;;1.45;1.02;;;21.90;59.50;;;;;;5002523;28;20084;-66
2023/06/28 02:55:25;;;;;;;1.08;0.98;;;21.80;59.40;;;;;;5002825;28;20048;-62
2023/06/28 02:57:51;;;;;;;2.40;1.10;;;21.80;59.40;;;;;;5003380;28;20030;-66
2023/06/28 03:00:16;;;;;;;1.95;0.82;;;21.80;59.40;;;;;;5004195;28;20034;-63
2023/06/28 03:02:42;;;;;;;1.08;0.80;;;21.80;59.40;;;;;;5003054;28;20034;-66
2023/06/28 03:05:07;;;;;;;1.30;0.95;;;21.80;59.40;;;;;;5002900;28;20044;-66
2023/06/28 03:07:33;;;;;;;1.20;1.10;;;21.80;60.10;;;;;;5006159;28;20081;-66
2023/06/28 03:09:59;;;;;;;1.15;0.82;;;21.80;59.50;;;;;;5005986;28;20052;-66
2023/06/28 03:12:24;;;;;;;1.20;1.05;;;21.80;59.50;;;;;;5004961;28;20116;-59
2023/06/28 03:14:50;;;;;;;2.25;1.00;;;21.80;59.50;;;;;;5007728;28;20089;-66
2023/06/28 03:17:19;;;;;;;2.85;1.08;;;21.80;59.40;;;;;;5004731;28;20519;-66
2023/06/28 03:19:45;;;;;;;1.70;1.02;;;21.80;59.40;;;;;;5004852;28;20033;-65
2023/06/28 03:22:10;;;;;;;2.05;0.93;;;21.80;59.50;;;;;;5008064;28;20408;-65
2023/06/28 03:24:36;;;;;;;2.45;0.90;;;21.80;59.70;;;;;;5006790;28;20502;-67
2023/06/28 03:27:01;;;;;;;2.20;1.50;;;21.70;59.90;;;;;;5007583;28;20036;-66
2023/06/28 03:29:27;;;;;;;1.90;1.27;;;21.70;60.30;;;;;;5007630;28;20030;-66
2023/06/28 03:31:52;;;;;;;3.42;1.23;;;21.70;60.00;;;;;;5006306;28;20046;-66
2023/06/28 03:34:17;;;;;;;2.22;1.20;;;21.60;59.90;;;;;;5006963;28;20056;-66
2023/06/28 03:36:44;;;;;;;4.20;1.05;;;21.60;60.10;;;;;;5006994;28;20041;-66
2023/06/28 03:39:09;;;;;;;1.83;0.98;;;21.60;59.90;;;;;;5003128;28;20060;-67
2023/06/28 03:41:35;;;;;;;1.67;1.05;;;21.60;59.70;;;;;;5003097;28;20038;-66
2023/06/28 03:44:00;;;;;;;1.80;1.10;;;21.60;59.70;;;;;;5002727;28;20122;-61
2023/06/28 03:46:26;;;;;;;2.25;0.98;;;21.60;59.50;;;;;;5004225;28;20226;-65
2023/06/28 03:48:51;;;;;;;2.42;1.10;;;21.60;59.70;;;;;;5004469;28;20023;-61
2023/06/28 03:51:16;;;;;;;1.23;1.00;;;21.50;59.60;;;;;;5007171;28;20622;-66
2023/06/28 03:53:43;;;;;;;3.58;1.17;;;21.60;59.40;;;;;;5004954;28;20041;-66
2023/06/28 03:56:08;;;;;;;1.77;1.10;;;21.60;59.40;;;;;;5006500;28;20500;-66
2023/06/28 03:58:34;;;;;;;2.17;1.23;;;21.60;59.30;;;;;;5003110;28;20060;-65
2023/06/28 04:01:02;;;;;;;1.90;1.25;;;21.60;59.60;;;;;;5005447;28;20608;-59
2023/06/28 04:03:28;;;;;;;1.33;1.13;;;21.50;59.40;;;;;;5005290;28;20451;-64
2023/06/28 04:05:53;;;;;;;1.50;1.27;;;21.60;59.60;;;;;;5001937;28;20061;-66
2023/06/28 04:08:19;;;;;;;2.60;1.20;;;21.50;59.50;;;;;;5005171;28;20045;-64
2023/06/28 04:10:44;;;;;;;3.50;1.45;;;21.50;59.50;;;;;;5001597;28;20030;-65
2023/06/28 04:13:10;;;;;;;2.70;1.20;;;21.50;59.30;;;;;;5003393;28;20397;-59
2023/06/28 04:15:35;;;;;;;1.95;1.50;;;21.50;59.40;;;;;;5005363;28;20041;-66
2023/06/28 04:18:01;;;;;;;2.25;1.20;;;21.50;59.40;;;;;;5005123;28;20053;-67
2023/06/28 04:20:27;;;;;;;1.67;1.10;;;21.50;59.30;;;;;;5005676;28;20034;-66
2023/06/28 04:22:53;;;;;;;2.00;1.48;;;21.50;59.30;;;;;;5004669;28;20041;-66
2023/06/28 04:25:18;;;;;;;1.63;1.10;;;21.50;59.30;;;;;;5005159;28;20046;-64
2023/06/28 04:27:44;;;;;;;2.90;1.30;;;21.50;59.40;;;;;;5002830;28;20053;-65
2023/06/28 04:30:10;;;;;;;2.08;1.15;;;21.50;59.20;;;;;;5004501;28;20109;-66
2023/06/28 04:32:35;;;;;;;2.33;1.42;;;21.50;59.30;;;;;;5002764;28;20034;-66
2023/06/28 04:35:01;;;;;;;3.45;1.50;;;21.50;59.40;;;;;;5001537;28;20030;-65
2023/06/28 04:37:27;;;;;;;3.92;1.23;;;21.50;59.50;;;;;;5005357;28;20037;-66
2023/06/28 04:39:56;;;;;;;2.17;1.10;;;21.50;59.20;;;;;;5004074;28;20030;-66
2023/06/28 04:42:21;;;;;;;3.25;1.13;;;21.50;59.20;;;;;;5005047;28;20037;-65
2023/06/28 04:44:47;;;;;;;2.88;1.40;;;21.50;59.00;;;;;;5003787;28;20034;-66
2023/06/28 04:47:15;;;;;;;3.22;1.55;;;21.50;59.00;;;;;;5005492;28;20796;-66
2023/06/28 04:49:47;;;;;;;1.63;1.13;;;21.50;59.00;;;;;;5004674;28;20018;-65
2023/06/28 04:52:14;;;;;;;1.80;1.17;;;21.50;59.20;;;;;;5004964;28;20030;-66
2023/06/28 04:54:41;;;;;;;3.08;1.13;;;21.50;59.20;;;;;;5012798;28;21690;-66
2023/06/28 04:57:07;;;;;;;1.05;0.90;;;21.50;59.20;;;;;;5015312;28;20026;-66
2023/06/28 04:59:33;;;;;;;4.65;1.20;;;21.50;59.10;;;;;;5004457;28;20046;-66
2023/06/28 05:01:58;;;;;;;3.00;0.90;;;21.50;59.20;;;;;;5000806;28;20040;-66
2023/06/28 05:04:24;;;;;;;1.33;0.95;;;21.50;59.10;;;;;;5001172;28;20235;-66
2023/06/28 05:06:51;;;;;;;2.53;1.10;;;21.50;59.10;;;;;;5004640;28;20461;-65
2023/06/28 05:09:17;;;;;;;3.08;1.50;;;21.50;59.00;;;;;;5005569;28;20064;-66
2023/06/28 05:11:43;;;;;;;4.68;1.70;;;21.50;59.00;;;;;;5002300;28;20033;-66
2023/06/28 05:14:09;;;;;;;3.88;1.15;;;21.50;59.00;;;;;;5004550;28;20124;-65
2023/06/28 05:16:34;;;;;;;4.70;1.23;;;21.50;59.10;;;;;;5005184;28;20284;-65
2023/06/28 05:18:59;;;;;;;1.77;1.08;;;21.60;59.20;;;;;;5004045;28;20529;-65
2023/06/28 05:21:25;;;;;;;1.95;1.20;;;21.60;59.10;;;;;;5005062;28;20068;-64
2023/06/28 05:23:50;;;;;;;3.78;1.45;;;21.60;59.20;;;;;;5003252;28;20493;-65
2023/06/28 05:26:16;;;;;;;1.48;1.38;;;21.60;59.10;;;;;;5025152;28;20316;-65
2023/06/28 05:28:41;;;;;;;3.50;1.27;;;21.60;59.20;;;;;;5004756;28;20030;-66
2023/06/28 05:31:07;;;;;;;2.28;1.50;;;21.50;58.80;;;;;;5002154;28;20507;-66
2023/06/28 05:33:32;;;;;;;2.45;1.23;;;21.50;58.80;;;;;;5006229;28;20118;-66
2023/06/28 05:35:58;;;;;;;2.17;1.20;;;21.50;58.90;;;;;;5006602;28;20046;-69
2023/06/28 05:38:23;;;;;;;3.10;1.48;;;21.50;59.10;;;;;;5004344;28;20041;-70
2023/06/28 05:40:53;;;;;;;4.32;1.20;;;21.60;58.70;;;;;;5001991;28;20513;-61
2023/06/28 05:43:21;;;;;;;2.63;1.25;;;21.60;58.70;;;;;;5003261;28;20504;-66
2023/06/28 05:45:46;;;;;;;2.80;1.40;;;21.60;58.60;;;;;;5003539;28;20038;-64
2023/06/28 05:48:12;;;;;;;2.17;1.52;;;21.50;58.00;;;;;;5003681;28;20030;-65
2023/06/28 05:50:38;;;;;;;3.35;1.30;;;21.50;58.60;;;;;;5003470;28;20101;-65
2023/06/28 05:53:03;;;;;;;6.95;1.50;;;21.50;59.90;;;;;;5001768;28;20030;-65
2023/06/28 05:55:29;;;;;;;2.63;1.38;;;21.40;59.50;;;;;;5004062;28;20087;-65
2023/06/28 05:57:54;;;;;;;4.55;1.60;;;21.40;59.50;;;;;;5003893;28;20026;-65
2023/06/28 06:00:20;;;;;;;5.53;1.88;;;21.40;59.60;;;;;;4997353;28;20057;-63
2023/06/28 06:02:45;;;;;;;2.55;1.13;;;21.40;59.30;;;;;;5004665;28;20038;-63
2023/06/28 06:05:13;;;;;;;4.22;1.08;;;21.50;59.50;;;;;;5003840;28;20050;-59
2023/06/28 06:07:39;;;;;;;9.35;1.80;;;21.50;59.30;;;;;;5004032;28;20369;-62
2023/06/28 06:10:05;;;;;;;3.17;1.27;;;21.50;59.20;;;;;;5004280;28;20034;-58
2023/06/28 06:12:31;;;;;;;4.82;1.30;;;21.40;59.00;;;;;;5004058;28;20450;-57
2023/06/28 06:14:57;;;;;;;3.03;1.35;;;21.40;58.90;;;;;;5001796;28;20034;-64
2023/06/28 06:17:22;;;;;;;5.50;1.85;;;21.40;58.90;;;;;;5004434;28;20058;-62
2023/06/28 06:19:48;;;;;;;3.67;1.45;;;21.40;58.90;;;;;;5000187;28;20448;-63
2023/06/28 06:22:13;;;;;;;6.57;1.50;;;21.30;58.30;;;;;;5002899;28;20525;-63
2023/06/28 06:24:39;;;;;;;3.05;1.35;;;21.30;58.70;;;;;;5003323;28;20109;-65
2023/06/28 06:27:04;;;;;;;3.10;1.33;;;21.30;59.20;;;;;;4999408;28;20035;-64
2023/06/28 06:29:30;;;;;;;5.95;1.58;;;21.30;59.20;;;;;;5002129;28;20504;-65
2023/06/28 06:31:56;;;;;;;4.10;1.30;;;21.30;59.00;;;;;;5001304;28;20516;-68
2023/06/28 06:34:21;;;;;;;2.92;1.60;;;21.30;59.30;;;;;;5001553;28;20037;-64
2023/06/28 06:36:47;;;;;;;5.68;1.65;;;21.40;59.30;;;;;;5002925;28;20388;-64
2023/06/28 06:39:12;;;;;;;4.78;1.55;;;21.40;60.40;;;;;;5001881;28;20022;-65
2023/06/28 06:41:38;;;;;;;5.05;1.70;;;21.30;59.90;;;;;;5005298;28;20030;-64
2023/06/28 06:44:04;;;;;;;5.05;1.58;;;21.30;59.80;;;;;;5004661;28;20109;-65
2023/06/28 06:46:29;;;;;;;1.80;1.48;;;21.30;59.50;;;;;;5003549;28;20037;-63
2023/06/28 06:48:55;;;;;;;4.68;1.63;;;21.30;59.30;;;;;;4998878;28;20041;-64
2023/06/28 06:51:21;;;;;;;5.00;1.85;;;21.20;59.30;;;;;;5001377;28;20124;-63
2023/06/28 06:53:46;;;;;;;4.38;1.27;;;21.10;59.70;;;;;;5002419;28;20057;-62
2023/06/28 06:56:12;;;;;;;3.60;1.60;;;21.20;59.80;;;;;;4998961;28;20135;-63
2023/06/28 06:58:37;;;;;;;4.70;1.45;;;21.20;60.10;;;;;;5000066;28;20045;-62
2023/06/28 07:01:03;;;;;;;4.85;1.50;;;21.20;60.20;;;;;;4998636;28;20308;-64
2023/06/28 07:03:29;;;;;;;7.65;1.80;;;21.30;61.40;;;;;;5015168;28;20404;-63
2023/06/28 07:05:54;;;;;;;4.57;1.80;;;21.20;61.00;;;;;;4998413;28;20031;-64
2023/06/28 07:08:19;;;;;;;10.05;2.00;;;21.20;60.80;;;;;;5002446;28;20497;-64
2023/06/28 07:10:45;;;;;;;4.72;1.75;;;21.20;60.30;;;;;;5002058;28;20032;-64
2023/06/28 07:13:11;;;;;;;6.55;1.52;;;21.20;60.20;;;;;;4998206;28;20133;-63
2023/06/28 07:15:36;;;;;;;7.38;2.17;;;21.20;61.00;;;;;;5002261;28;20034;-66
2023/06/28 07:18:03;;;;;;;8.07;2.47;;;21.10;60.60;;;;;;5000652;28;20034;-64
2023/06/28 07:20:29;;;;;;;6.07;2.30;;;21.10;60.60;;;;;;5002717;28;20030;-64
2023/06/28 07:22:54;;;;;;;6.97;2.30;;;21.10;60.60;;;;;;5002560;28;20077;-65
2023/06/28 07:25:19;;;;;;;5.45;1.92;;;21.10;60.30;;;;;;4997556;28;20354;-64
2023/06/28 07:27:45;;;;;;;7.63;2.22;;;21.10;60.60;;;;;;5001318;28;20535;-65
2023/06/28 07:30:11;;;;;;;5.47;2.15;;;21.10;60.30;;;;;;5002151;28;20022;-65
2023/06/28 07:32:36;;;;;;;9.50;1.83;;;21.10;60.30;;;;;;5000901;28;20030;-64
2023/06/28 07:35:02;;;;;;;6.82;2.28;;;21.10;60.50;;;;;;5000148;28;20030;-63
2023/06/28 07:37:30;;;;;;;6.63;1.90;;;21.10;60.60;;;;;;5002055;28;20121;-64
2023/06/28 07:39:57;;;;;;;5.22;1.80;;;21.00;60.20;;;;;;5000123;28;20023;-63
2023/06/28 07:42:23;;;;;;;6.32;2.30;;;21.00;60.30;;;;;;5002250;28;20062;-64
2023/06/28 07:44:49;;;;;;;5.05;1.90;;;21.00;60.20;;;;;;4998810;28;20052;-65
2023/06/28 07:47:14;;;;;;;6.43;1.88;;;21.00;59.40;;;;;;5002389;28;20057;-65
2023/06/28 07:49:40;;;;;;;6.10;2.05;;;21.00;60.00;;;;;;5001274;28;20576;-65
2023/06/28 07:52:06;;;;;;;7.50;2.00;;;21.00;60.00;;;;;;4994155;28;20756;-64
2023/06/28 07:54:31;;;;;;;6.35;2.47;;;21.00;58.50;;;;;;5003006;28;20041;-63
2023/06/28 07:56:57;;;;;;;5.45;2.17;;;21.00;58.30;;;;;;5002941;28;20341;-66
2023/06/28 07:59:22;;;;;;;5.70;1.73;;;20.90;58.40;;;;;;5002697;28;20062;-65
2023/06/28 08:01:49;;;;;;;5.03;1.75;;;21.00;59.30;;;;;;5006260;28;20077;-65
2023/06/28 08:04:20;;;;;;;4.70;1.65;;;21.00;59.30;;;;;;5005020;28;20499;-65
2023/06/28 08:06:46;;;;;;;8.45;2.17;;;21.00;59.80;;;;;;5005314;28;20030;-65
2023/06/28 08:09:11;;;;;;;2.60;1.70;;;21.00;60.20;;;;;;5002519;28;20117;-65
2023/06/28 08:11:37;;;;;;;4.13;1.88;;;21.00;60.30;;;;;;5004296;28;20117;-64
2023/06/28 08:14:02;;;;;;;4.50;1.75;;;21.00;60.60;;;;;;5004509;28;20447;-65
2023/06/28 08:16:28;;;;;;;6.13;1.88;;;20.90;60.30;;;;;;5004549;28;20050;-62
2023/06/28 08:18:53;;;;;;;6.63;1.85;;;21.00;60.20;;;;;;5004932;28;20041;-62
2023/06/28 08:21:19;;;;;;;5.40;2.20;;;21.00;59.30;;;;;;5003306;28;20040;-65
2023/06/28 08:23:44;;;;;;;4.65;1.73;;;21.00;59.50;;;;;;5002676;28;20030;-65
2023/06/28 08:26:10;;;;;;;4.05;1.60;;;21.00;60.40;;;;;;5002862;28;20117;-65
2023/06/28 08:28:35;;;;;;;3.50;1.92;;;21.00;59.80;;;;;;5002783;28;20404;-65
2023/06/28 08:31:01;;;;;;;3.05;1.45;;;21.00;59.60;;;;;;5003788;28;20033;-65
2023/06/28 08:33:26;;;;;;;4.57;1.42;;;21.00;58.80;;;;;;5005078;28;20066;-65
2023/06/28 08:35:52;;;;;;;3.53;1.40;;;21.00;58.80;;;;;;5004001;28;20034;-65
2023/06/28 08:38:18;;;;;;;5.32;1.73;;;21.00;59.10;;;;;;5003932;28;20057;-64
2023/06/28 08:40:43;;;;;;;2.50;1.45;;;21.00;59.40;;;;;;5001461;28;20030;-65
2023/06/28 08:43:12;;;;;;;4.00;1.60;;;21.00;58.80;;;;;;5002579;28;20026;-64
2023/06/28 08:45:38;;;;;;;2.92;1.33;;;21.00;59.20;;;;;;5004195;28;20117;-65
2023/06/28 08:48:04;;;;;;;3.55;1.55;;;21.00;59.00;;;;;;5000946;28;20109;-65
2023/06/28 08:50:30;;;;;;;2.80;1.60;;;21.00;59.00;;;;;;4999812;28;20396;-65
2023/06/28 08:52:56;;;;;;;4.93;2.20;;;20.90;58.60;;;;;;5002714;28;20034;-64
2023/06/28 08:55:22;;;;;;;4.70;1.20;;;20.90;57.70;;;;;;5022554;28;20312;-64
2023/06/28 08:57:48;;;;;;;5.28;1.42;;;20.90;58.10;;;;;;5004325;28;20495;-65
2023/06/28 09:00:14;;;;;;;4.80;1.17;;;20.90;58.10;;;;;;5002708;28;20026;-64
2023/06/28 09:02:42;;;;;;;4.13;1.40;;;20.80;57.70;;;;;;5004743;28;20034;-65
2023/06/28 09:05:09;;;;;;;3.25;1.48;;;20.90;58.00;;;;;;4999640;28;20548;-64
2023/06/28 09:07:39;;;;;;;2.55;1.52;;;20.90;57.80;;;;;;5004552;28;20041;-64
2023/06/28 09:10:09;;;;;;;3.35;1.50;;;20.90;57.10;;;;;;5000438;28;20560;-65
2023/06/28 09:12:35;;;;;;;2.10;1.25;;;20.90;57.60;;;;;;5003244;28;20520;-64
2023/06/28 09:15:03;;;;;;;4.72;1.63;;;20.90;57.00;;;;;;5004039;28;20026;-63
2023/06/28 09:17:28;;;;;;;3.17;1.42;;;21.00;57.20;;;;;;4998078;28;20381;-65
2023/06/28 09:19:59;;;;;;;2.47;1.20;;;20.90;57.60;;;;;;5004164;28;20313;-66
2023/06/28 09:22:26;;;;;;;3.10;1.20;;;20.90;57.40;;;;;;5002835;28;20025;-65
2023/06/28 09:24:51;;;;;;;4.93;1.27;;;20.90;56.80;;;;;;5003371;28;20037;-65
2023/06/28 09:27:17;;;;;;;6.63;2.08;;;20.90;56.60;;;;;;5001859;28;20349;-64
2023/06/28 09:29:42;;;;;;;2.38;0.98;;;20.90;57.40;;;;;;5003206;28;20540;-65
2023/06/28 09:32:08;;;;;;;2.92;1.50;;;20.90;57.80;;;;;;5003843;28;20404;-64
2023/06/28 09:34:36;;;;;;;2.03;1.13;;;21.00;57.60;;;;;;5002640;28;20426;-65
2023/06/28 09:37:05;;;;;;;4.32;1.45;;;20.90;57.60;;;;;;5001867;28;20428;-64
2023/06/28 09:39:36;;;;;;;4.80;1.48;;;20.90;57.20;;;;;;5001241;28;20053;-65
2023/06/28 09:42:02;;;;;;;4.10;1.20;;;21.00;56.40;;;;;;5004228;28;20512;-62
2023/06/28 09:44:29;;;;;;;5.18;1.48;;;20.90;55.10;;;;;;5004091;28;20160;-61
2023/06/28 09:47:00;;;;;;;4.10;1.63;;;20.90;53.10;;;;;;5003384;28;20041;-65
2023/06/28 09:49:26;;;;;;;2.60;1.15;;;20.80;53.20;;;;;;5005562;28;20057;-65
2023/06/28 09:52:02;;;;;;;2.65;1.50;;;20.90;53.90;;;;;;5005833;28;20560;-65
2023/06/28 09:54:44;;;;;;;2.10;1.20;;;20.90;54.80;;;;;;5004499;28;20079;-63
2023/06/28 09:57:11;;;;;;;2.35;1.10;;;20.90;56.40;;;;;;5000604;28;20026;-65
2023/06/28 09:59:37;;;;;;;2.83;1.15;;;20.90;56.20;;;;;;5003213;28;20030;-65
2023/06/28 10:02:07;;;;;;;2.83;1.17;;;20.90;54.90;;;;;;5002814;28;20108;-65
2023/06/28 10:04:37;;;;;;;4.20;1.20;;;20.90;55.60;;;;;;5001991;28;20110;-65
2023/06/28 10:07:04;;;;;;;2.47;0.80;;;20.90;54.60;;;;;;4998029;28;20021;-65
2023/06/28 10:09:35;;;;;;;2.83;1.25;;;20.90;56.40;;;;;;5001142;28;20333;-65
2023/06/28 10:12:03;;;;;;;1.90;1.10;;;20.90;55.80;;;;;;5003544;28;20076;-65
2023/06/28 10:14:34;;;;;;;3.35;1.10;;;20.80;55.40;;;;;;5001304;28;20037;-63
2023/06/28 10:17:00;;;;;;;3.75;1.25;;;20.80;55.50;;;;;;5001227;28;20026;-65
2023/06/28 10:19:27;;;;;;;2.42;0.90;;;20.80;53.50;;;;;;5000050;28;20029;-65
2023/06/28 10:21:53;;;;;;;3.17;1.40;;;20.90;54.50;;;;;;5003462;28;20030;-65
2023/06/28 10:24:19;;;;;;;1.73;1.10;;;20.90;54.10;;;;;;5004383;28;20098;-65
2023/06/28 10:26:45;;;;;;;7.68;1.35;;;20.90;55.00;;;;;;5003254;28;20034;-65
2023/06/28 10:29:12;;;;;;;2.65;1.40;;;20.90;55.20;;;;;;5002261;28;20033;-64
2023/06/28 10:31:37;;;;;;;2.53;1.17;;;20.90;55.60;;;;;;5003456;28;20617;-64
2023/06/28 10:34:03;;;;;;;8.25;1.33;;;20.90;54.90;;;;;;5001453;28;20060;-65
2023/06/28 10:36:30;;;;;;;3.03;0.80;;;20.90;53.50;;;;;;5004578;28;20334;-64
2023/06/28 10:38:55;;;;;;;2.58;1.10;;;21.00;54.70;;;;;;5006073;28;20535;-65
2023/06/28 10:41:22;;;;;;;4.22;1.30;;;21.00;54.30;;;;;;5002408;28;20042;-64
2023/06/28 10:43:50;;;;;;;4.65;1.20;;;21.00;54.30;;;;;;5000673;28;20033;-65
2023/06/28 10:46:22;;;;;;;2.47;1.23;;;20.90;52.20;;;;;;4999531;28;20037;-65
2023/06/28 10:48:52;;;;;;;2.05;1.00;;;20.90;53.10;;;;;;5001817;28;20515;-65
2023/06/28 10:51:23;;;;;;;2.60;1.30;;;20.90;53.00;;;;;;4999395;28;20348;-65
2023/06/28 10:53:55;;;;;;;1.23;0.80;;;20.90;54.40;;;;;;5001973;28;20045;-65
2023/06/28 10:56:21;;;;;;;2.55;0.90;;;20.90;53.10;;;;;;5000453;28;20052;-65
2023/06/28 10:58:53;;;;;;;2.10;0.90;;;21.00;54.00;;;;;;5001639;28;20026;-64
2023/06/28 11:01:37;;;;;;;2.60;1.50;;;21.00;53.60;;;;;;4999854;28;20095;-65
2023/06/28 11:04:16;;;;;;;1.50;1.08;;;20.90;54.60;;;;;;4989707;28;20109;-66
2023/06/28 11:06:41;;;;;;;184.93;133.18;;;20.90;54.70;;;;;;5002498;28;20113;-64
2023/06/28 11:09:14;;;;;;;190.93;132.93;;;21.00;54.90;;;;;;5002547;28;20575;-65
2023/06/28 11:12:01;;;;;;;171.15;118.78;;;20.90;54.70;;;;;;5001071;28;20050;-65
2023/06/28 11:14:31;;;;;;;100.95;68.45;;;20.90;52.90;;;;;;5001452;28;20121;-65
2023/06/28 11:17:06;;;;;;;75.13;50.00;;;20.90;51.20;;;;;;5004529;28;20030;-65
2023/06/28 11:19:32;;;;;;;121.78;79.50;;;20.80;51.00;;;;;;5002339;28;20131;-65
2023/06/28 11:21:59;;;;;;;155.80;106.47;;;20.80;52.30;;;;;;5001131;28;20529;-65
2023/06/28 11:24:37;;;;;;;103.60;66.57;;;20.90;53.60;;;;;;5001085;28;20042;-65
2023/06/28 11:27:08;;;;;;;128.35;88.40;;;20.90;52.80;;;;;;5002290;28;20033;-65
2023/06/28 11:29:57;;;;;;;96.40;64.80;;;20.90;53.90;;;;;;5002660;28;20034;-65
2023/06/28 11:32:28;;;;;;;74.00;51.38;;;20.90;53.30;;;;;;5003789;28;20045;-64
2023/06/28 11:34:55;;;;;;;57.17;38.40;;;20.90;53.40;;;;;;5005783;28;20046;-65
2023/06/28 11:37:22;;;;;;;40.15;27.85;;;20.90;52.70;;;;;;5003054;28;20038;-65
2023/06/28 11:39:49;;;;;;;29.15;19.73;;;21.00;53.00;;;;;;5004570;28;20511;-65
2023/06/28 11:42:15;;;;;;;16.13;11.77;;;20.90;51.40;;;;;;5004557;28;20127;-65
2023/06/28 11:44:49;;;;;;;16.02;7.22;;;20.80;51.40;;;;;;5003880;28;20057;-65
2023/06/28 11:47:19;;;;;;;14.45;6.72;;;20.80;51.10;;;;;;5003776;28;20030;-64
2023/06/28 11:49:46;;;;;;;21.83;11.85;;;20.80;51.60;;;;;;5006176;28;20036;-65
2023/06/28 11:52:14;;;;;;;16.52;12.00;;;20.80;52.30;;;;;;5005806;28;20302;-65
2023/06/28 11:54:42;;;;;;;20.88;13.50;;;20.90;52.90;;;;;;5003284;28;20030;-65
2023/06/28 11:57:08;;;;;;;13.90;7.90;;;20.90;53.90;;;;;;5005405;28;20388;-65
2023/06/28 11:59:34;;;;;;;11.13;5.90;;;20.90;53.60;;;;;;5005268;28;20026;-65
2023/06/28 12:02:05;;;;;;;4.57;3.45;;;20.80;52.40;;;;;;5005354;28;20351;-65
2023/06/28 12:04:31;;;;;;;8.70;4.30;;;20.80;51.60;;;;;;4992255;28;20404;-64
2023/06/28 12:07:01;;;;;;;12.05;5.40;;;20.80;51.90;;;;;;5005053;28;20060;-65
2023/06/28 12:09:28;;;;;;;10.93;5.35;;;20.80;51.70;;;;;;5003631;28;20038;-65
2023/06/28 12:11:58;;;;;;;10.25;5.53;;;20.80;52.90;;;;;;5005054;28;20046;-64
2023/06/28 12:14:28;;;;;;;7.40;4.65;;;20.90;53.80;;;;;;5004338;28;20037;-64
2023/06/28 12:16:55;;;;;;;7.45;5.32;;;20.90;53.30;;;;;;5005664;28;20022;-65
2023/06/28 12:19:29;;;;;;;5.78;4.65;;;20.90;54.00;;;;;;5005479;28;20034;-66
2023/06/28 12:21:56;;;;;;;6.45;3.88;;;21.00;54.30;;;;;;5002161;28;20487;-65
2023/06/28 12:24:26;;;;;;;3.83;2.45;;;20.90;54.90;;;;;;5002288;28;20512;-65
2023/06/28 12:26:56;;;;;;;4.63;2.60;;;20.90;53.00;;;;;;5001503;28;20168;-65
2023/06/28 12:29:23;;;;;;;5.55;2.67;;;21.00;53.90;;;;;;5004298;28;20111;-65
2023/06/28 12:31:53;;;;;;;6.22;3.05;;;20.90;54.30;;;;;;5006376;28;20029;-65
2023/06/28 12:34:25;;;;;;;5.13;2.60;;;20.90;53.00;;;;;;5008495;28;20422;-63
2023/06/28 12:36:53;;;;;;;3.22;1.80;;;20.90;53.80;;;;;;5008083;28;20555;-65
2023/06/28 12:39:26;;;;;;;5.63;2.30;;;20.90;53.90;;;;;;5007954;28;20042;-63
2023/06/28 12:42:01;;;;;;;3.47;2.28;;;20.90;54.10;;;;;;5008948;28;20034;-64